sensor_id;sensor_type;location;lat;lon;timestamp;P1;durP1;ratioP1;P2;durP2;ratioP2
62475;SDS011;50739;45.670;11.936;2023-08-08T00:04:29;1.00;;;0.40;;
62475;SDS011;50739;45.670;11.936;2023-08-08T00:09:32;1.00;;;0.43;;
62475;SDS011;50739;45.670;11.936;2023-08-08T00:14:35;0.40;;;0.30;;
62475;SDS011;50739;45.670;11.936;2023-08-08T00:19:37;0.77;;;0.50;;
62475;SDS011;50739;45.670;11.936;2023-08-08T00:24:40;0.93;;;0.40;;
62475;SDS011;50739;45.670;11.936;2023-08-08T00:29:43;0.40;;;0.40;;
62475;SDS011;50739;45.670;11.936;2023-08-08T00:34:46;1.08;;;0.40;;
62475;SDS011;50739;45.670;11.936;2023-08-08T00:39:49;1.23;;;0.40;;
62475;SDS011;50739;45.670;11.936;2023-08-08T00:44:52;1.20;;;0.40;;
62475;SDS011;50739;45.670;11.936;2023-08-08T00:49:54;2.17;;;0.50;;
62475;SDS011;50739;45.670;11.936;2023-08-08T00:54:59;1.40;;;0.47;;
62475;SDS011;50739;45.670;11.936;2023-08-08T01:00:02;0.85;;;0.50;;
62475;SDS011;50739;45.670;11.936;2023-08-08T01:05:05;1.10;;;0.40;;
62475;SDS011;50739;45.670;11.936;2023-08-08T01:10:11;0.60;;;0.50;;
62475;SDS011;50739;45.670;11.936;2023-08-08T01:15:16;0.73;;;0.52;;
62475;SDS011;50739;45.670;11.936;2023-08-08T01:20:20;0.50;;;0.47;;
62475;SDS011;50739;45.670;11.936;2023-08-08T01:25:25;1.73;;;0.50;;
62475;SDS011;50739;45.670;11.936;2023-08-08T01:30:27;0.50;;;0.50;;
62475;SDS011;50739;45.670;11.936;2023-08-08T01:35:30;1.63;;;0.50;;
62475;SDS011;50739;45.670;11.936;2023-08-08T01:40:37;0.45;;;0.40;;
62475;SDS011;50739;45.670;11.936;2023-08-08T01:45:41;0.52;;;0.50;;
62475;SDS011;50739;45.670;11.936;2023-08-08T01:50:45;0.93;;;0.40;;
62475;SDS011;50739;45.670;11.936;2023-08-08T01:55:49;1.10;;;0.40;;
62475;SDS011;50739;45.670;11.936;2023-08-08T02:00:52;1.23;;;0.45;;
62475;SDS011;50739;45.670;11.936;2023-08-08T02:05:55;0.60;;;0.40;;
62475;SDS011;50739;45.670;11.936;2023-08-08T02:10:58;0.87;;;0.40;;
62475;SDS011;50739;45.670;11.936;2023-08-08T02:16:01;1.07;;;0.40;;
62475;SDS011;50739;45.670;11.936;2023-08-08T02:21:03;0.95;;;0.40;;
62475;SDS011;50739;45.670;11.936;2023-08-08T02:26:07;1.30;;;0.40;;
62475;SDS011;50739;45.670;11.936;2023-08-08T02:31:09;1.03;;;0.40;;
62475;SDS011;50739;45.670;11.936;2023-08-08T02:36:11;0.80;;;0.40;;
62475;SDS011;50739;45.670;11.936;2023-08-08T02:41:15;1.30;;;0.50;;
62475;SDS011;50739;45.670;11.936;2023-08-08T02:46:17;0.50;;;0.40;;
62475;SDS011;50739;45.670;11.936;2023-08-08T02:51:19;1.17;;;0.40;;
62475;SDS011;50739;45.670;11.936;2023-08-08T02:56:23;0.70;;;0.40;;
62475;SDS011;50739;45.670;11.936;2023-08-08T03:01:25;0.63;;;0.45;;
62475;SDS011;50739;45.670;11.936;2023-08-08T03:06:28;0.50;;;0.45;;
62475;SDS011;50739;45.670;11.936;2023-08-08T03:11:31;1.02;;;0.50;;
62475;SDS011;50739;45.670;11.936;2023-08-08T03:16:33;1.48;;;0.40;;
62475;SDS011;50739;45.670;11.936;2023-08-08T03:21:36;0.60;;;0.47;;
62475;SDS011;50739;45.670;11.936;2023-08-08T03:26:39;1.40;;;0.40;;
62475;SDS011;50739;45.670;11.936;2023-08-08T03:31:42;0.80;;;0.40;;
62475;SDS011;50739;45.670;11.936;2023-08-08T03:36:44;1.10;;;0.47;;
62475;SDS011;50739;45.670;11.936;2023-08-08T03:41:48;0.85;;;0.40;;
62475;SDS011;50739;45.670;11.936;2023-08-08T03:46:50;0.40;;;0.40;;
62475;SDS011;50739;45.670;11.936;2023-08-08T03:51:52;0.30;;;0.30;;
62475;SDS011;50739;45.670;11.936;2023-08-08T03:56:56;1.17;;;0.30;;
62475;SDS011;50739;45.670;11.936;2023-08-08T04:01:58;0.75;;;0.43;;
62475;SDS011;50739;45.670;11.936;2023-08-08T04:07:00;0.30;;;0.30;;
62475;SDS011;50739;45.670;11.936;2023-08-08T04:12:04;0.40;;;0.30;;
62475;SDS011;50739;45.670;11.936;2023-08-08T04:17:07;0.43;;;0.40;;
62475;SDS011;50739;45.670;11.936;2023-08-08T04:22:09;0.90;;;0.30;;
62475;SDS011;50739;45.670;11.936;2023-08-08T04:27:13;1.63;;;0.40;;
62475;SDS011;50739;45.670;11.936;2023-08-08T04:32:15;1.20;;;0.40;;
62475;SDS011;50739;45.670;11.936;2023-08-08T04:37:18;0.93;;;0.40;;
62475;SDS011;50739;45.670;11.936;2023-08-08T04:42:21;0.88;;;0.50;;
62475;SDS011;50739;45.670;11.936;2023-08-08T04:47:23;0.87;;;0.70;;
62475;SDS011;50739;45.670;11.936;2023-08-08T04:52:26;1.23;;;0.47;;
62475;SDS011;50739;45.670;11.936;2023-08-08T04:57:29;0.73;;;0.30;;
62475;SDS011;50739;45.670;11.936;2023-08-08T05:02:32;0.43;;;0.20;;
62475;SDS011;50739;45.670;11.936;2023-08-08T05:07:34;0.80;;;0.30;;
62475;SDS011;50739;45.670;11.936;2023-08-08T05:12:39;1.02;;;0.40;;
62475;SDS011;50739;45.670;11.936;2023-08-08T05:17:41;0.60;;;0.20;;
62475;SDS011;50739;45.670;11.936;2023-08-08T05:22:44;0.70;;;0.30;;
62475;SDS011;50739;45.670;11.936;2023-08-08T05:27:47;0.25;;;0.20;;
62475;SDS011;50739;45.670;11.936;2023-08-08T05:32:50;0.27;;;0.27;;
62475;SDS011;50739;45.670;11.936;2023-08-08T05:37:52;0.20;;;0.20;;
62475;SDS011;50739;45.670;11.936;2023-08-08T05:42:56;0.60;;;0.40;;
62475;SDS011;50739;45.670;11.936;2023-08-08T05:47:58;0.40;;;0.30;;
62475;SDS011;50739;45.670;11.936;2023-08-08T05:53:01;0.45;;;0.30;;
62475;SDS011;50739;45.670;11.936;2023-08-08T05:58:05;0.63;;;0.30;;
62475;SDS011;50739;45.670;11.936;2023-08-08T06:03:07;0.87;;;0.30;;
62475;SDS011;50739;45.670;11.936;2023-08-08T06:08:09;0.30;;;0.30;;
62475;SDS011;50739;45.670;11.936;2023-08-08T06:13:15;0.70;;;0.30;;
62475;SDS011;50739;45.670;11.936;2023-08-08T06:18:17;0.50;;;0.30;;
62475;SDS011;50739;45.670;11.936;2023-08-08T06:23:20;0.30;;;0.30;;
62475;SDS011;50739;45.670;11.936;2023-08-08T06:28:23;0.90;;;0.37;;
62475;SDS011;50739;45.670;11.936;2023-08-08T06:33:26;1.40;;;0.40;;
62475;SDS011;50739;45.670;11.936;2023-08-08T06:38:28;0.50;;;0.40;;
62475;SDS011;50739;45.670;11.936;2023-08-08T06:43:35;1.67;;;0.43;;
62475;SDS011;50739;45.670;11.936;2023-08-08T06:48:37;0.93;;;0.38;;
62475;SDS011;50739;45.670;11.936;2023-08-08T06:53:40;0.50;;;0.30;;
62475;SDS011;50739;45.670;11.936;2023-08-08T06:58:43;0.40;;;0.40;;
62475;SDS011;50739;45.670;11.936;2023-08-08T07:03:46;0.80;;;0.60;;
62475;SDS011;50739;45.670;11.936;2023-08-08T07:08:48;0.60;;;0.50;;
62475;SDS011;50739;45.670;11.936;2023-08-08T07:13:52;0.80;;;0.38;;
62475;SDS011;50739;45.670;11.936;2023-08-08T07:18:54;0.60;;;0.35;;
62475;SDS011;50739;45.670;11.936;2023-08-08T07:23:56;0.93;;;0.50;;
62475;SDS011;50739;45.670;11.936;2023-08-08T07:29:00;0.57;;;0.40;;
62475;SDS011;50739;45.670;11.936;2023-08-08T07:34:02;1.20;;;0.30;;
62475;SDS011;50739;45.670;11.936;2023-08-08T07:39:04;0.60;;;0.30;;
62475;SDS011;50739;45.670;11.936;2023-08-08T07:44:08;1.60;;;0.60;;
62475;SDS011;50739;45.670;11.936;2023-08-08T07:49:10;1.38;;;0.40;;
62475;SDS011;50739;45.670;11.936;2023-08-08T07:54:12;0.60;;;0.20;;
62475;SDS011;50739;45.670;11.936;2023-08-08T07:59:16;0.50;;;0.40;;
62475;SDS011;50739;45.670;11.936;2023-08-08T08:04:18;0.40;;;0.30;;
62475;SDS011;50739;45.670;11.936;2023-08-08T08:09:20;1.05;;;0.30;;
62475;SDS011;50739;45.670;11.936;2023-08-08T08:14:24;1.05;;;0.40;;
62475;SDS011;50739;45.670;11.936;2023-08-08T08:19:26;3.80;;;0.47;;
62475;SDS011;50739;45.670;11.936;2023-08-08T08:24:29;1.63;;;0.30;;
62475;SDS011;50739;45.670;11.936;2023-08-08T08:29:32;1.10;;;0.30;;
62475;SDS011;50739;45.670;11.936;2023-08-08T08:34:34;1.10;;;0.40;;
62475;SDS011;50739;45.670;11.936;2023-08-08T08:39:37;2.33;;;0.60;;
62475;SDS011;50739;45.670;11.936;2023-08-08T08:44:40;0.40;;;0.40;;
62475;SDS011;50739;45.670;11.936;2023-08-08T08:49:44;0.50;;;0.40;;
62475;SDS011;50739;45.670;11.936;2023-08-08T08:54:47;1.33;;;0.30;;
62475;SDS011;50739;45.670;11.936;2023-08-08T08:59:51;1.95;;;0.28;;
62475;SDS011;50739;45.670;11.936;2023-08-08T09:04:53;0.43;;;0.28;;
62475;SDS011;50739;45.670;11.936;2023-08-08T09:09:56;0.35;;;0.25;;
62475;SDS011;50739;45.670;11.936;2023-08-08T09:14:59;0.77;;;0.30;;
62475;SDS011;50739;45.670;11.936;2023-08-08T09:20:05;0.33;;;0.27;;
62475;SDS011;50739;45.670;11.936;2023-08-08T09:25:08;0.80;;;0.30;;
62475;SDS011;50739;45.670;11.936;2023-08-08T09:30:12;0.50;;;0.30;;
62475;SDS011;50739;45.670;11.936;2023-08-08T09:35:15;1.38;;;0.40;;
62475;SDS011;50739;45.670;11.936;2023-08-08T09:40:17;1.35;;;0.38;;
62475;SDS011;50739;45.670;11.936;2023-08-08T09:45:23;1.40;;;0.20;;
62475;SDS011;50739;45.670;11.936;2023-08-08T09:50:25;0.98;;;0.28;;
62475;SDS011;50739;45.670;11.936;2023-08-08T09:55:28;1.40;;;0.40;;
62475;SDS011;50739;45.670;11.936;2023-08-08T10:00:32;0.80;;;0.30;;
62475;SDS011;50739;45.670;11.936;2023-08-08T10:05:35;0.30;;;0.27;;
62475;SDS011;50739;45.670;11.936;2023-08-08T10:10:39;0.40;;;0.20;;
62475;SDS011;50739;45.670;11.936;2023-08-08T10:15:43;0.40;;;0.20;;
62475;SDS011;50739;45.670;11.936;2023-08-08T10:20:46;0.52;;;0.20;;
62475;SDS011;50739;45.670;11.936;2023-08-08T10:25:50;0.37;;;0.30;;
62475;SDS011;50739;45.670;11.936;2023-08-08T10:30:55;2.08;;;0.30;;
62475;SDS011;50739;45.670;11.936;2023-08-08T10:35:59;0.60;;;0.30;;
62475;SDS011;50739;45.670;11.936;2023-08-08T10:41:02;1.00;;;0.40;;
62475;SDS011;50739;45.670;11.936;2023-08-08T10:46:06;0.90;;;0.30;;
62475;SDS011;50739;45.670;11.936;2023-08-08T10:51:08;4.40;;;1.67;;
62475;SDS011;50739;45.670;11.936;2023-08-08T10:56:12;1.50;;;0.30;;
62475;SDS011;50739;45.670;11.936;2023-08-08T11:01:16;0.83;;;0.20;;
62475;SDS011;50739;45.670;11.936;2023-08-08T11:06:19;0.93;;;0.30;;
62475;SDS011;50739;45.670;11.936;2023-08-08T11:11:21;0.80;;;0.30;;
62475;SDS011;50739;45.670;11.936;2023-08-08T11:16:25;0.30;;;0.30;;
62475;SDS011;50739;45.670;11.936;2023-08-08T11:21:27;0.50;;;0.30;;
62475;SDS011;50739;45.670;11.936;2023-08-08T11:26:29;0.82;;;0.40;;
62475;SDS011;50739;45.670;11.936;2023-08-08T11:31:34;0.73;;;0.40;;
62475;SDS011;50739;45.670;11.936;2023-08-08T11:36:37;1.00;;;0.40;;
62475;SDS011;50739;45.670;11.936;2023-08-08T11:41:39;1.47;;;0.30;;
62475;SDS011;50739;45.670;11.936;2023-08-08T11:46:45;1.48;;;0.40;;
62475;SDS011;50739;45.670;11.936;2023-08-08T11:51:48;0.40;;;0.40;;
62475;SDS011;50739;45.670;11.936;2023-08-08T11:56:50;1.00;;;0.35;;
62475;SDS011;50739;45.670;11.936;2023-08-08T12:01:55;0.50;;;0.30;;
62475;SDS011;50739;45.670;11.936;2023-08-08T12:07:00;1.00;;;0.30;;
62475;SDS011;50739;45.670;11.936;2023-08-08T12:12:04;1.00;;;0.40;;
62475;SDS011;50739;45.670;11.936;2023-08-08T12:17:08;2.70;;;0.30;;
62475;SDS011;50739;45.670;11.936;2023-08-08T12:22:10;2.10;;;0.80;;
62475;SDS011;50739;45.670;11.936;2023-08-08T12:27:13;0.40;;;0.32;;
62475;SDS011;50739;45.670;11.936;2023-08-08T12:32:17;0.93;;;0.60;;
62475;SDS011;50739;45.670;11.936;2023-08-08T12:37:19;0.68;;;0.40;;
62475;SDS011;50739;45.670;11.936;2023-08-08T12:42:22;0.80;;;0.40;;
62475;SDS011;50739;45.670;11.936;2023-08-08T12:47:25;0.55;;;0.50;;
62475;SDS011;50739;45.670;11.936;2023-08-08T12:52:29;2.35;;;1.40;;
62475;SDS011;50739;45.670;11.936;2023-08-08T12:57:32;2.10;;;1.20;;
62475;SDS011;50739;45.670;11.936;2023-08-08T13:02:37;2.10;;;1.38;;
62475;SDS011;50739;45.670;11.936;2023-08-08T13:07:39;2.10;;;0.68;;
62475;SDS011;50739;45.670;11.936;2023-08-08T13:12:41;1.33;;;0.43;;
62475;SDS011;50739;45.670;11.936;2023-08-08T13:17:45;1.60;;;0.50;;
62475;SDS011;50739;45.670;11.936;2023-08-08T13:22:47;1.02;;;0.63;;
62475;SDS011;50739;45.670;11.936;2023-08-08T13:27:49;1.10;;;0.40;;
62475;SDS011;50739;45.670;11.936;2023-08-08T13:32:53;3.07;;;1.70;;
62475;SDS011;50739;45.670;11.936;2023-08-08T13:37:55;0.95;;;0.85;;
62475;SDS011;50739;45.670;11.936;2023-08-08T13:42:58;2.03;;;1.80;;
62475;SDS011;50739;45.670;11.936;2023-08-08T13:48:03;1.30;;;0.40;;
62475;SDS011;50739;45.670;11.936;2023-08-08T13:53:06;1.80;;;0.70;;
62475;SDS011;50739;45.670;11.936;2023-08-08T13:58:09;0.52;;;0.30;;
62475;SDS011;50739;45.670;11.936;2023-08-08T14:03:13;1.42;;;0.40;;
62475;SDS011;50739;45.670;11.936;2023-08-08T14:08:15;1.20;;;0.47;;
62475;SDS011;50739;45.670;11.936;2023-08-08T14:13:17;2.10;;;1.33;;
62475;SDS011;50739;45.670;11.936;2023-08-08T14:18:22;1.13;;;0.50;;
62475;SDS011;50739;45.670;11.936;2023-08-08T14:23:24;1.80;;;0.90;;
62475;SDS011;50739;45.670;11.936;2023-08-08T14:28:26;2.65;;;0.40;;
62475;SDS011;50739;45.670;11.936;2023-08-08T14:33:30;0.43;;;0.40;;
62475;SDS011;50739;45.670;11.936;2023-08-08T14:38:34;0.40;;;0.40;;
62475;SDS011;50739;45.670;11.936;2023-08-08T14:43:37;0.90;;;0.30;;
62475;SDS011;50739;45.670;11.936;2023-08-08T14:48:41;1.60;;;0.40;;
62475;SDS011;50739;45.670;11.936;2023-08-08T14:53:43;1.23;;;0.40;;
62475;SDS011;50739;45.670;11.936;2023-08-08T14:58:46;0.50;;;0.35;;
62475;SDS011;50739;45.670;11.936;2023-08-08T15:03:49;2.00;;;0.70;;
62475;SDS011;50739;45.670;11.936;2023-08-08T15:08:52;1.52;;;0.50;;
62475;SDS011;50739;45.670;11.936;2023-08-08T15:13:54;4.20;;;1.50;;
62475;SDS011;50739;45.670;11.936;2023-08-08T15:18:58;0.85;;;0.82;;
62475;SDS011;50739;45.670;11.936;2023-08-08T15:24:00;2.00;;;0.47;;
62475;SDS011;50739;45.670;11.936;2023-08-08T15:29:03;0.60;;;0.32;;
62475;SDS011;50739;45.670;11.936;2023-08-08T15:34:07;0.80;;;0.40;;
62475;SDS011;50739;45.670;11.936;2023-08-08T15:39:09;1.80;;;0.80;;
62475;SDS011;50739;45.670;11.936;2023-08-08T15:44:12;1.80;;;1.60;;
62475;SDS011;50739;45.670;11.936;2023-08-08T15:49:16;2.00;;;0.90;;
62475;SDS011;50739;45.670;11.936;2023-08-08T15:54:18;2.60;;;0.70;;
62475;SDS011;50739;45.670;11.936;2023-08-08T15:59:20;1.30;;;0.40;;
62475;SDS011;50739;45.670;11.936;2023-08-08T16:04:24;1.00;;;0.45;;
62475;SDS011;50739;45.670;11.936;2023-08-08T16:09:26;1.73;;;0.40;;
62475;SDS011;50739;45.670;11.936;2023-08-08T16:14:29;1.60;;;0.50;;
62475;SDS011;50739;45.670;11.936;2023-08-08T16:19:32;1.70;;;0.55;;
62475;SDS011;50739;45.670;11.936;2023-08-08T16:24:35;1.30;;;0.67;;
62475;SDS011;50739;45.670;11.936;2023-08-08T16:29:37;1.10;;;0.50;;
62475;SDS011;50739;45.670;11.936;2023-08-08T16:34:42;1.25;;;0.40;;
62475;SDS011;50739;45.670;11.936;2023-08-08T16:39:46;1.60;;;0.43;;
62475;SDS011;50739;45.670;11.936;2023-08-08T16:44:48;0.93;;;0.30;;
62475;SDS011;50739;45.670;11.936;2023-08-08T16:49:52;1.50;;;0.40;;
62475;SDS011;50739;45.670;11.936;2023-08-08T16:54:54;1.00;;;0.30;;
62475;SDS011;50739;45.670;11.936;2023-08-08T16:59:56;0.80;;;0.30;;
62475;SDS011;50739;45.670;11.936;2023-08-08T17:05:03;0.63;;;0.30;;
62475;SDS011;50739;45.670;11.936;2023-08-08T17:10:07;1.23;;;0.40;;
62475;SDS011;50739;45.670;11.936;2023-08-08T17:15:10;0.90;;;0.40;;
62475;SDS011;50739;45.670;11.936;2023-08-08T17:20:14;1.20;;;0.40;;
62475;SDS011;50739;45.670;11.936;2023-08-08T17:25:16;0.90;;;0.50;;
62475;SDS011;50739;45.670;11.936;2023-08-08T17:30:18;0.60;;;0.40;;
62475;SDS011;50739;45.670;11.936;2023-08-08T17:35:22;0.47;;;0.40;;
62475;SDS011;50739;45.670;11.936;2023-08-08T17:40:24;1.20;;;0.30;;
62475;SDS011;50739;45.670;11.936;2023-08-08T17:45:27;1.50;;;0.60;;
62475;SDS011;50739;45.670;11.936;2023-08-08T17:50:30;1.98;;;0.40;;
62475;SDS011;50739;45.670;11.936;2023-08-08T17:55:34;1.40;;;0.40;;
62475;SDS011;50739;45.670;11.936;2023-08-08T18:00:38;0.80;;;0.40;;
62475;SDS011;50739;45.670;11.936;2023-08-08T18:05:42;2.40;;;0.90;;
62475;SDS011;50739;45.670;11.936;2023-08-08T18:10:44;4.45;;;0.73;;
62475;SDS011;50739;45.670;11.936;2023-08-08T18:15:49;2.15;;;0.80;;
62475;SDS011;50739;45.670;11.936;2023-08-08T18:20:53;2.70;;;0.63;;
62475;SDS011;50739;45.670;11.936;2023-08-08T18:25:55;2.50;;;1.20;;
62475;SDS011;50739;45.670;11.936;2023-08-08T18:31:01;2.40;;;1.20;;
62475;SDS011;50739;45.670;11.936;2023-08-08T18:36:04;0.93;;;0.70;;
62475;SDS011;50739;45.670;11.936;2023-08-08T18:41:07;1.75;;;0.85;;
62475;SDS011;50739;45.670;11.936;2023-08-08T18:46:09;1.73;;;0.90;;
62475;SDS011;50739;45.670;11.936;2023-08-08T18:51:13;2.10;;;0.90;;
62475;SDS011;50739;45.670;11.936;2023-08-08T18:56:16;1.70;;;0.70;;
62475;SDS011;50739;45.670;11.936;2023-08-08T19:01:18;1.90;;;0.77;;
62475;SDS011;50739;45.670;11.936;2023-08-08T19:06:22;1.43;;;0.70;;
62475;SDS011;50739;45.670;11.936;2023-08-08T19:11:24;2.38;;;0.95;;
62475;SDS011;50739;45.670;11.936;2023-08-08T19:16:27;1.90;;;0.70;;
62475;SDS011;50739;45.670;11.936;2023-08-08T19:21:32;1.70;;;0.68;;
62475;SDS011;50739;45.670;11.936;2023-08-08T19:26:34;2.10;;;0.80;;
62475;SDS011;50739;45.670;11.936;2023-08-08T19:31:36;1.90;;;0.95;;
62475;SDS011;50739;45.670;11.936;2023-08-08T19:36:40;1.10;;;0.67;;
62475;SDS011;50739;45.670;11.936;2023-08-08T19:41:43;3.75;;;1.20;;
62475;SDS011;50739;45.670;11.936;2023-08-08T19:46:45;1.60;;;1.00;;
62475;SDS011;50739;45.670;11.936;2023-08-08T19:51:49;2.38;;;1.13;;
62475;SDS011;50739;45.670;11.936;2023-08-08T19:56:51;1.80;;;1.03;;
62475;SDS011;50739;45.670;11.936;2023-08-08T20:01:53;2.80;;;1.20;;
62475;SDS011;50739;45.670;11.936;2023-08-08T20:06:57;3.97;;;1.10;;
62475;SDS011;50739;45.670;11.936;2023-08-08T20:11:59;2.90;;;1.50;;
62475;SDS011;50739;45.670;11.936;2023-08-08T20:17:02;3.83;;;1.20;;
62475;SDS011;50739;45.670;11.936;2023-08-08T20:22:05;2.73;;;1.10;;
62475;SDS011;50739;45.670;11.936;2023-08-08T20:27:08;3.73;;;1.23;;
62475;SDS011;50739;45.670;11.936;2023-08-08T20:32:10;2.53;;;1.10;;
62475;SDS011;50739;45.670;11.936;2023-08-08T20:37:14;1.75;;;1.00;;
62475;SDS011;50739;45.670;11.936;2023-08-08T20:42:17;3.17;;;1.00;;
62475;SDS011;50739;45.670;11.936;2023-08-08T20:47:20;1.25;;;0.95;;
62475;SDS011;50739;45.670;11.936;2023-08-08T20:52:24;2.23;;;0.80;;
62475;SDS011;50739;45.670;11.936;2023-08-08T20:57:26;1.47;;;0.93;;
62475;SDS011;50739;45.670;11.936;2023-08-08T21:02:28;1.95;;;0.90;;
62475;SDS011;50739;45.670;11.936;2023-08-08T21:07:33;1.10;;;0.93;;
62475;SDS011;50739;45.670;11.936;2023-08-08T21:12:36;1.13;;;1.00;;
62475;SDS011;50739;45.670;11.936;2023-08-08T21:17:38;1.98;;;0.85;;
62475;SDS011;50739;45.670;11.936;2023-08-08T21:22:45;1.70;;;1.00;;
62475;SDS011;50739;45.670;11.936;2023-08-08T21:27:47;1.23;;;0.77;;
62475;SDS011;50739;45.670;11.936;2023-08-08T21:32:49;0.77;;;0.68;;
62475;SDS011;50739;45.670;11.936;2023-08-08T21:37:53;3.95;;;0.90;;
62475;SDS011;50739;45.670;11.936;2023-08-08T21:42:55;4.50;;;1.50;;
62475;SDS011;50739;45.670;11.936;2023-08-08T21:47:57;3.35;;;1.20;;
62475;SDS011;50739;45.670;11.936;2023-08-08T21:53:02;1.88;;;1.00;;
62475;SDS011;50739;45.670;11.936;2023-08-08T21:58:04;1.50;;;1.00;;
62475;SDS011;50739;45.670;11.936;2023-08-08T22:03:07;2.63;;;1.05;;
62475;SDS011;50739;45.670;11.936;2023-08-08T22:08:10;2.95;;;1.00;;
62475;SDS011;50739;45.670;11.936;2023-08-08T22:13:13;2.47;;;1.10;;
62475;SDS011;50739;45.670;11.936;2023-08-08T22:18:16;1.48;;;1.00;;
62475;SDS011;50739;45.670;11.936;2023-08-08T22:23:20;2.72;;;1.15;;
62475;SDS011;50739;45.670;11.936;2023-08-08T22:28:23;4.43;;;2.50;;
62475;SDS011;50739;45.670;11.936;2023-08-08T22:33:25;1.73;;;1.40;;
62475;SDS011;50739;45.670;11.936;2023-08-08T22:38:29;3.88;;;1.58;;
62475;SDS011;50739;45.670;11.936;2023-08-08T22:43:31;2.23;;;1.50;;
62475;SDS011;50739;45.670;11.936;2023-08-08T22:48:34;2.00;;;1.80;;
62475;SDS011;50739;45.670;11.936;2023-08-08T22:53:37;1.80;;;1.70;;
62475;SDS011;50739;45.670;11.936;2023-08-08T22:58:40;1.93;;;1.67;;
62475;SDS011;50739;45.670;11.936;2023-08-08T23:03:42;2.40;;;1.40;;
62475;SDS011;50739;45.670;11.936;2023-08-08T23:08:46;3.83;;;2.25;;
62475;SDS011;50739;45.670;11.936;2023-08-08T23:13:50;4.63;;;2.23;;
62475;SDS011;50739;45.670;11.936;2023-08-08T23:18:52;4.50;;;2.40;;
62475;SDS011;50739;45.670;11.936;2023-08-08T23:23:56;4.80;;;2.40;;
62475;SDS011;50739;45.670;11.936;2023-08-08T23:28:58;4.20;;;2.80;;
62475;SDS011;50739;45.670;11.936;2023-08-08T23:34:00;3.93;;;2.80;;
62475;SDS011;50739;45.670;11.936;2023-08-08T23:39:04;4.75;;;2.60;;
62475;SDS011;50739;45.670;11.936;2023-08-08T23:44:08;5.63;;;2.30;;
62475;SDS011;50739;45.670;11.936;2023-08-08T23:49:10;4.78;;;2.90;;
62475;SDS011;50739;45.670;11.936;2023-08-08T23:54:15;4.27;;;2.40;;
62475;SDS011;50739;45.670;11.936;2023-08-08T23:59:17;3.80;;;2.40;;
